sensor_id;sensor_type;location;lat;lon;timestamp;pressure;altitude;pressure_sealevel;temperature;humidity
35045;BME280;21231;48.394;34.964;2023-03-03T00:02:09;100320.72;;;-3.35;100.00
35045;BME280;21231;48.394;34.964;2023-03-03T00:04:39;100307.41;;;-3.48;100.00
35045;BME280;21231;48.394;34.964;2023-03-03T00:07:07;100308.16;;;-3.49;100.00
35045;BME280;21231;48.394;34.964;2023-03-03T00:09:37;100307.03;;;-3.44;100.00
35045;BME280;21231;48.394;34.964;2023-03-03T00:14:57;100295.34;;;-3.36;100.00
35045;BME280;21231;48.394;34.964;2023-03-03T00:17:28;100300.59;;;-3.49;100.00
35045;BME280;21231;48.394;34.964;2023-03-03T00:19:56;100292.34;;;-3.56;100.00
35045;BME280;21231;48.394;34.964;2023-03-03T00:22:35;100298.44;;;-3.53;100.00
35045;BME280;21231;48.394;34.964;2023-03-03T00:27:54;100287.88;;;-3.73;100.00
35045;BME280;21231;48.394;34.964;2023-03-03T00:30:25;100295.63;;;-3.71;100.00
35045;BME280;21231;48.394;34.964;2023-03-03T00:32:54;100291.50;;;-3.71;100.00
35045;BME280;21231;48.394;34.964;2023-03-03T00:35:32;100295.31;;;-3.82;100.00
35045;BME280;21231;48.394;34.964;2023-03-03T00:38:20;100286.72;;;-3.91;100.00
35045;BME280;21231;48.394;34.964;2023-03-03T00:40:49;100287.41;;;-3.85;100.00
35045;BME280;21231;48.394;34.964;2023-03-03T00:43:35;100281.19;;;-3.58;100.00
35045;BME280;21231;48.394;34.964;2023-03-03T00:46:04;100276.16;;;-3.20;100.00
35045;BME280;21231;48.394;34.964;2023-03-03T00:51:30;100288.47;;;-3.37;100.00
35045;BME280;21231;48.394;34.964;2023-03-03T00:53:58;100276.88;;;-3.59;100.00
35045;BME280;21231;48.394;34.964;2023-03-03T00:56:28;100273.78;;;-3.18;100.00
35045;BME280;21231;48.394;34.964;2023-03-03T00:58:56;100282.31;;;-2.94;100.00
35045;BME280;21231;48.394;34.964;2023-03-03T01:01:30;100275.47;;;-2.95;100.00
35045;BME280;21231;48.394;34.964;2023-03-03T01:03:59;100270.44;;;-2.95;100.00
35045;BME280;21231;48.394;34.964;2023-03-03T01:06:27;100272.97;;;-2.72;100.00
35045;BME280;21231;48.394;34.964;2023-03-03T01:08:56;100267.84;;;-2.65;100.00
35045;BME280;21231;48.394;34.964;2023-03-03T01:11:25;100269.59;;;-2.56;100.00
35045;BME280;21231;48.394;34.964;2023-03-03T01:13:55;100271.84;;;-2.43;100.00
35045;BME280;21231;48.394;34.964;2023-03-03T01:16:23;100263.03;;;-2.47;100.00
35045;BME280;21231;48.394;34.964;2023-03-03T01:18:52;100273.63;;;-2.42;100.00
35045;BME280;21231;48.394;34.964;2023-03-03T01:21:21;100272.16;;;-2.40;100.00
35045;BME280;21231;48.394;34.964;2023-03-03T01:23:49;100272.16;;;-2.40;100.00
35045;BME280;21231;48.394;34.964;2023-03-03T01:26:18;100271.63;;;-2.38;100.00
35045;BME280;21231;48.394;34.964;2023-03-03T01:28:46;100264.56;;;-2.40;100.00
35045;BME280;21231;48.394;34.964;2023-03-03T01:31:17;100261.25;;;-2.32;100.00
35045;BME280;21231;48.394;34.964;2023-03-03T01:33:48;100263.72;;;-2.25;100.00
35045;BME280;21231;48.394;34.964;2023-03-03T01:36:23;100253.78;;;-2.23;100.00
35045;BME280;21231;48.394;34.964;2023-03-03T01:38:55;100255.91;;;-2.19;100.00
35045;BME280;21231;48.394;34.964;2023-03-03T01:41:28;100257.13;;;-2.15;100.00
35045;BME280;21231;48.394;34.964;2023-03-03T01:43:59;100256.66;;;-2.20;100.00
35045;BME280;21231;48.394;34.964;2023-03-03T01:49:07;100245.00;;;-2.27;100.00
35045;BME280;21231;48.394;34.964;2023-03-03T01:52:04;100236.00;;;-2.32;100.00
35045;BME280;21231;48.394;34.964;2023-03-03T01:54:41;100234.47;;;-2.39;100.00
35045;BME280;21231;48.394;34.964;2023-03-03T01:57:15;100229.97;;;-2.41;100.00
35045;BME280;21231;48.394;34.964;2023-03-03T01:59:47;100231.69;;;-2.49;100.00
35045;BME280;21231;48.394;34.964;2023-03-03T02:02:17;100230.66;;;-2.74;100.00
35045;BME280;21231;48.394;34.964;2023-03-03T02:04:48;100232.69;;;-3.10;100.00
35045;BME280;21231;48.394;34.964;2023-03-03T02:07:18;100225.13;;;-3.40;100.00
35045;BME280;21231;48.394;34.964;2023-03-03T02:12:47;100209.31;;;-3.16;100.00
35045;BME280;21231;48.394;34.964;2023-03-03T02:17:49;100215.44;;;-2.91;100.00
35045;BME280;21231;48.394;34.964;2023-03-03T02:26:12;100200.81;;;-2.86;100.00
35045;BME280;21231;48.394;34.964;2023-03-03T02:28:42;100205.47;;;-2.82;100.00
35045;BME280;21231;48.394;34.964;2023-03-03T02:31:14;100202.00;;;-2.75;100.00
35045;BME280;21231;48.394;34.964;2023-03-03T02:33:46;100203.56;;;-2.68;100.00
35045;BME280;21231;48.394;34.964;2023-03-03T02:36:32;100198.34;;;-2.70;100.00
35045;BME280;21231;48.394;34.964;2023-03-03T02:39:15;100196.16;;;-2.67;100.00
35045;BME280;21231;48.394;34.964;2023-03-03T02:41:57;100182.16;;;-2.72;100.00
35045;BME280;21231;48.394;34.964;2023-03-03T02:44:37;100192.88;;;-2.66;100.00
35045;BME280;21231;48.394;34.964;2023-03-03T02:47:06;100190.19;;;-2.67;100.00
35045;BME280;21231;48.394;34.964;2023-03-03T02:49:35;100197.53;;;-2.61;100.00
35045;BME280;21231;48.394;34.964;2023-03-03T02:52:06;100195.53;;;-2.57;100.00
35045;BME280;21231;48.394;34.964;2023-03-03T02:54:39;100186.81;;;-2.52;100.00
35045;BME280;21231;48.394;34.964;2023-03-03T02:57:08;100194.88;;;-2.47;100.00
35045;BME280;21231;48.394;34.964;2023-03-03T02:59:36;100188.03;;;-2.48;100.00
35045;BME280;21231;48.394;34.964;2023-03-03T03:02:11;100192.28;;;-2.40;100.00
35045;BME280;21231;48.394;34.964;2023-03-03T03:04:40;100174.78;;;-2.38;100.00
35045;BME280;21231;48.394;34.964;2023-03-03T03:07:10;100174.63;;;-2.40;100.00
35045;BME280;21231;48.394;34.964;2023-03-03T03:09:39;100170.13;;;-2.42;100.00
35045;BME280;21231;48.394;34.964;2023-03-03T03:12:10;100169.31;;;-2.50;100.00
35045;BME280;21231;48.394;34.964;2023-03-03T03:14:39;100167.16;;;-2.70;100.00
35045;BME280;21231;48.394;34.964;2023-03-03T03:17:07;100164.59;;;-2.86;100.00
35045;BME280;21231;48.394;34.964;2023-03-03T03:19:36;100158.34;;;-2.90;100.00
35045;BME280;21231;48.394;34.964;2023-03-03T03:22:04;100125.81;;;-3.03;100.00
35045;BME280;21231;48.394;34.964;2023-03-03T03:24:34;100166.56;;;-2.84;100.00
35045;BME280;21231;48.394;34.964;2023-03-03T03:27:07;100168.25;;;-3.15;100.00
35045;BME280;21231;48.394;34.964;2023-03-03T03:29:36;100159.22;;;-3.36;100.00
35045;BME280;21231;48.394;34.964;2023-03-03T03:32:08;100155.97;;;-3.35;100.00
35045;BME280;21231;48.394;34.964;2023-03-03T03:34:36;100155.16;;;-3.20;100.00
35045;BME280;21231;48.394;34.964;2023-03-03T03:37:05;100145.91;;;-3.12;100.00
35045;BME280;21231;48.394;34.964;2023-03-03T03:39:35;100145.94;;;-3.19;100.00
35045;BME280;21231;48.394;34.964;2023-03-03T03:42:05;100144.16;;;-3.20;100.00
35045;BME280;21231;48.394;34.964;2023-03-03T03:44:34;100148.25;;;-3.13;100.00
35045;BME280;21231;48.394;34.964;2023-03-03T03:47:03;100139.56;;;-3.08;100.00
35045;BME280;21231;48.394;34.964;2023-03-03T03:49:33;100142.25;;;-3.07;100.00
35045;BME280;21231;48.394;34.964;2023-03-03T03:52:01;100137.44;;;-3.12;100.00
35045;BME280;21231;48.394;34.964;2023-03-03T03:54:31;100139.63;;;-3.15;100.00
35045;BME280;21231;48.394;34.964;2023-03-03T03:57:01;100130.91;;;-3.26;100.00
35045;BME280;21231;48.394;34.964;2023-03-03T03:59:30;100131.50;;;-3.36;100.00
35045;BME280;21231;48.394;34.964;2023-03-03T04:01:58;100137.66;;;-3.41;100.00
35045;BME280;21231;48.394;34.964;2023-03-03T04:04:26;100135.19;;;-3.49;100.00
35045;BME280;21231;48.394;34.964;2023-03-03T04:06:55;100130.41;;;-3.62;100.00
35045;BME280;21231;48.394;34.964;2023-03-03T04:09:23;100138.31;;;-3.59;100.00
35045;BME280;21231;48.394;34.964;2023-03-03T04:11:51;100138.28;;;-3.51;100.00
35045;BME280;21231;48.394;34.964;2023-03-03T04:14:20;100135.75;;;-3.51;100.00
35045;BME280;21231;48.394;34.964;2023-03-03T04:20:44;100144.03;;;-3.52;100.00
35045;BME280;21231;48.394;34.964;2023-03-03T04:23:12;100148.09;;;-3.69;100.00
35045;BME280;21231;48.394;34.964;2023-03-03T04:25:41;100153.25;;;-3.91;100.00
35045;BME280;21231;48.394;34.964;2023-03-03T04:28:16;100145.44;;;-3.85;100.00
35045;BME280;21231;48.394;34.964;2023-03-03T04:30:45;100145.41;;;-3.71;100.00
35045;BME280;21231;48.394;34.964;2023-03-03T04:33:16;100133.63;;;-3.56;100.00
35045;BME280;21231;48.394;34.964;2023-03-03T04:35:45;100137.41;;;-3.36;100.00
35045;BME280;21231;48.394;34.964;2023-03-03T04:38:16;100135.00;;;-3.20;100.00
35045;BME280;21231;48.394;34.964;2023-03-03T04:40:46;100141.34;;;-3.07;100.00
35045;BME280;21231;48.394;34.964;2023-03-03T04:43:16;100139.28;;;-2.95;100.00
35045;BME280;21231;48.394;34.964;2023-03-03T04:45:44;100142.25;;;-2.83;100.00
35045;BME280;21231;48.394;34.964;2023-03-03T04:48:12;100138.53;;;-2.71;100.00
35045;BME280;21231;48.394;34.964;2023-03-03T04:50:41;100147.25;;;-2.60;100.00
35045;BME280;21231;48.394;34.964;2023-03-03T04:53:10;100149.78;;;-2.44;100.00
35045;BME280;21231;48.394;34.964;2023-03-03T04:55:40;100153.44;;;-2.33;100.00
35045;BME280;21231;48.394;34.964;2023-03-03T04:58:08;100148.22;;;-2.18;100.00
35045;BME280;21231;48.394;34.964;2023-03-03T05:00:38;100144.56;;;-1.97;100.00
35045;BME280;21231;48.394;34.964;2023-03-03T05:03:11;100146.22;;;-1.73;100.00
35045;BME280;21231;48.394;34.964;2023-03-03T05:05:42;100155.81;;;-1.61;100.00
35045;BME280;21231;48.394;34.964;2023-03-03T05:08:11;100151.22;;;-1.56;100.00
35045;BME280;21231;48.394;34.964;2023-03-03T05:10:39;100157.47;;;-1.37;100.00
35045;BME280;21231;48.394;34.964;2023-03-03T05:13:08;100145.91;;;-0.92;100.00
35045;BME280;21231;48.394;34.964;2023-03-03T05:15:40;100150.56;;;0.34;100.00
35045;BME280;21231;48.394;34.964;2023-03-03T05:18:10;100150.75;;;1.19;100.00
35045;BME280;21231;48.394;34.964;2023-03-03T05:20:39;100142.78;;;2.19;100.00
35045;BME280;21231;48.394;34.964;2023-03-03T05:23:08;100134.59;;;3.12;100.00
35045;BME280;21231;48.394;34.964;2023-03-03T05:25:39;100128.00;;;3.25;100.00
35045;BME280;21231;48.394;34.964;2023-03-03T05:28:09;100122.69;;;3.42;100.00
35045;BME280;21231;48.394;34.964;2023-03-03T05:30:37;100120.41;;;2.84;100.00
35045;BME280;21231;48.394;34.964;2023-03-03T05:33:06;100135.34;;;1.92;100.00
35045;BME280;21231;48.394;34.964;2023-03-03T05:35:34;100137.66;;;1.14;100.00
35045;BME280;21231;48.394;34.964;2023-03-03T05:38:03;100134.41;;;0.60;100.00
35045;BME280;21231;48.394;34.964;2023-03-03T05:40:32;100134.16;;;0.13;100.00
35045;BME280;21231;48.394;34.964;2023-03-03T05:43:00;100139.38;;;-0.03;100.00
35045;BME280;21231;48.394;34.964;2023-03-03T05:45:29;100131.34;;;0.01;100.00
35045;BME280;21231;48.394;34.964;2023-03-03T05:47:57;100137.31;;;0.02;100.00
35045;BME280;21231;48.394;34.964;2023-03-03T05:50:25;100131.47;;;0.03;100.00
35045;BME280;21231;48.394;34.964;2023-03-03T05:52:54;100139.53;;;0.07;100.00
35045;BME280;21231;48.394;34.964;2023-03-03T05:55:22;100138.50;;;0.05;100.00
35045;BME280;21231;48.394;34.964;2023-03-03T05:57:50;100135.94;;;0.05;100.00
35045;BME280;21231;48.394;34.964;2023-03-03T06:00:18;100134.47;;;0.07;100.00
35045;BME280;21231;48.394;34.964;2023-03-03T06:02:47;100134.59;;;0.09;100.00
35045;BME280;21231;48.394;34.964;2023-03-03T06:05:15;100132.69;;;0.15;100.00
35045;BME280;21231;48.394;34.964;2023-03-03T06:07:44;100126.84;;;0.16;100.00
35045;BME280;21231;48.394;34.964;2023-03-03T06:10:12;100140.88;;;0.13;100.00
35045;BME280;21231;48.394;34.964;2023-03-03T06:12:44;100137.91;;;0.17;100.00
35045;BME280;21231;48.394;34.964;2023-03-03T06:15:13;100131.31;;;0.19;100.00
35045;BME280;21231;48.394;34.964;2023-03-03T06:17:41;100129.41;;;0.25;100.00
35045;BME280;21231;48.394;34.964;2023-03-03T06:20:12;100137.56;;;0.31;100.00
35045;BME280;21231;48.394;34.964;2023-03-03T06:22:41;100134.44;;;0.34;100.00
35045;BME280;21231;48.394;34.964;2023-03-03T06:25:09;100132.66;;;0.33;100.00
35045;BME280;21231;48.394;34.964;2023-03-03T06:27:38;100138.19;;;0.38;100.00
35045;BME280;21231;48.394;34.964;2023-03-03T06:30:07;100137.56;;;0.40;100.00
35045;BME280;21231;48.394;34.964;2023-03-03T06:32:35;100132.94;;;0.45;100.00
35045;BME280;21231;48.394;34.964;2023-03-03T06:35:04;100123.84;;;0.47;100.00
35045;BME280;21231;48.394;34.964;2023-03-03T06:37:33;100125.78;;;0.49;100.00
35045;BME280;21231;48.394;34.964;2023-03-03T06:40:01;100131.16;;;0.53;100.00
35045;BME280;21231;48.394;34.964;2023-03-03T06:42:30;100125.91;;;0.51;100.00
35045;BME280;21231;48.394;34.964;2023-03-03T06:44:58;100125.88;;;0.60;100.00
35045;BME280;21231;48.394;34.964;2023-03-03T06:47:26;100122.59;;;0.61;100.00
35045;BME280;21231;48.394;34.964;2023-03-03T06:49:55;100120.19;;;0.62;100.00
35045;BME280;21231;48.394;34.964;2023-03-03T06:52:25;100123.66;;;0.63;100.00
35045;BME280;21231;48.394;34.964;2023-03-03T06:54:57;100118.13;;;0.58;100.00
35045;BME280;21231;48.394;34.964;2023-03-03T06:57:32;100120.41;;;0.46;100.00
35045;BME280;21231;48.394;34.964;2023-03-03T07:00:24;100120.69;;;0.49;100.00
35045;BME280;21231;48.394;34.964;2023-03-03T07:03:00;100120.19;;;0.62;100.00
35045;BME280;21231;48.394;34.964;2023-03-03T07:05:33;100120.81;;;0.69;100.00
35045;BME280;21231;48.394;34.964;2023-03-03T07:08:05;100109.91;;;0.61;100.00
35045;BME280;21231;48.394;34.964;2023-03-03T07:10:33;100116.94;;;0.64;100.00
35045;BME280;21231;48.394;34.964;2023-03-03T07:15:48;100113.91;;;0.77;100.00
35045;BME280;21231;48.394;34.964;2023-03-03T07:21:17;100104.47;;;0.84;100.00
35045;BME280;21231;48.394;34.964;2023-03-03T07:23:48;100104.81;;;0.79;100.00
35045;BME280;21231;48.394;34.964;2023-03-03T07:26:19;100104.00;;;0.88;100.00
35045;BME280;21231;48.394;34.964;2023-03-03T07:28:54;100104.72;;;0.96;100.00
35045;BME280;21231;48.394;34.964;2023-03-03T07:31:36;100099.06;;;0.90;100.00
35045;BME280;21231;48.394;34.964;2023-03-03T07:34:37;100097.13;;;0.96;100.00
35045;BME280;21231;48.394;34.964;2023-03-03T07:37:15;100100.06;;;1.01;100.00
35045;BME280;21231;48.394;34.964;2023-03-03T07:39:46;100100.97;;;1.01;100.00
35045;BME280;21231;48.394;34.964;2023-03-03T07:42:24;100103.50;;;1.01;100.00
35045;BME280;21231;48.394;34.964;2023-03-03T07:45:38;100097.28;;;0.98;100.00
35045;BME280;21231;48.394;34.964;2023-03-03T07:50:40;100082.91;;;0.98;100.00
35045;BME280;21231;48.394;34.964;2023-03-03T07:53:26;100092.91;;;0.97;100.00
35045;BME280;21231;48.394;34.964;2023-03-03T07:55:55;100088.00;;;0.98;100.00
35045;BME280;21231;48.394;34.964;2023-03-03T07:58:37;100091.69;;;1.02;100.00
35045;BME280;21231;48.394;34.964;2023-03-03T08:03:55;100090.50;;;1.07;100.00
35045;BME280;21231;48.394;34.964;2023-03-03T08:14:36;100083.88;;;1.18;100.00
35045;BME280;21231;48.394;34.964;2023-03-03T08:17:19;100073.28;;;1.13;100.00
35045;BME280;21231;48.394;34.964;2023-03-03T08:19:49;100082.31;;;1.29;100.00
35045;BME280;21231;48.394;34.964;2023-03-03T08:22:32;100065.28;;;1.47;100.00
35045;BME280;21231;48.394;34.964;2023-03-03T08:25:03;100060.69;;;1.62;100.00
35045;BME280;21231;48.394;34.964;2023-03-03T08:27:31;100065.88;;;1.73;100.00
35045;BME280;21231;48.394;34.964;2023-03-03T08:30:00;100059.41;;;1.76;100.00
35045;BME280;21231;48.394;34.964;2023-03-03T08:32:28;100062.63;;;1.84;100.00
35045;BME280;21231;48.394;34.964;2023-03-03T08:34:57;100055.13;;;1.86;100.00
35045;BME280;21231;48.394;34.964;2023-03-03T08:37:25;100054.41;;;1.87;100.00
35045;BME280;21231;48.394;34.964;2023-03-03T08:39:54;100046.88;;;1.88;100.00
35045;BME280;21231;48.394;34.964;2023-03-03T08:42:22;100044.91;;;1.95;100.00
35045;BME280;21231;48.394;34.964;2023-03-03T08:44:53;100045.41;;;2.01;100.00
35045;BME280;21231;48.394;34.964;2023-03-03T08:47:21;100046.19;;;2.00;100.00
35045;BME280;21231;48.394;34.964;2023-03-03T08:49:49;100040.63;;;2.04;100.00
35045;BME280;21231;48.394;34.964;2023-03-03T08:52:18;100045.25;;;2.18;100.00
35045;BME280;21231;48.394;34.964;2023-03-03T08:54:47;100037.81;;;2.30;100.00
35045;BME280;21231;48.394;34.964;2023-03-03T08:57:15;100029.69;;;2.35;100.00
35045;BME280;21231;48.394;34.964;2023-03-03T08:59:43;100036.41;;;2.34;100.00
35045;BME280;21231;48.394;34.964;2023-03-03T09:02:12;100028.69;;;2.43;100.00
35045;BME280;21231;48.394;34.964;2023-03-03T09:04:40;100033.41;;;2.49;100.00
35045;BME280;21231;48.394;34.964;2023-03-03T09:07:09;100017.69;;;2.63;100.00
35045;BME280;21231;48.394;34.964;2023-03-03T09:09:37;100023.53;;;2.83;100.00
35045;BME280;21231;48.394;34.964;2023-03-03T09:12:14;100014.53;;;2.97;100.00
35045;BME280;21231;48.394;34.964;2023-03-03T09:14:44;100005.13;;;2.96;100.00
35045;BME280;21231;48.394;34.964;2023-03-03T09:17:35;100009.81;;;3.12;100.00
35045;BME280;21231;48.394;34.964;2023-03-03T09:22:49;100012.13;;;2.99;100.00
35045;BME280;21231;48.394;34.964;2023-03-03T09:27:55;100008.28;;;2.73;100.00
35045;BME280;21231;48.394;34.964;2023-03-03T09:30:35;100005.97;;;2.65;100.00
35045;BME280;21231;48.394;34.964;2023-03-03T09:33:44;100003.91;;;2.61;100.00
35045;BME280;21231;48.394;34.964;2023-03-03T09:36:35;99988.16;;;2.65;100.00
35045;BME280;21231;48.394;34.964;2023-03-03T09:39:26;99986.25;;;2.52;100.00
35045;BME280;21231;48.394;34.964;2023-03-03T09:44:55;99987.59;;;2.38;100.00
35045;BME280;21231;48.394;34.964;2023-03-03T09:47:52;99979.84;;;2.37;100.00
35045;BME280;21231;48.394;34.964;2023-03-03T09:55:50;99974.16;;;2.50;100.00
35045;BME280;21231;48.394;34.964;2023-03-03T10:04:00;99965.25;;;2.65;100.00
35045;BME280;21231;48.394;34.964;2023-03-03T10:09:45;99965.22;;;2.44;100.00
35045;BME280;21231;48.394;34.964;2023-03-03T10:17:49;99949.94;;;2.44;100.00
35045;BME280;21231;48.394;34.964;2023-03-03T10:29:36;99930.16;;;2.72;100.00
35045;BME280;21231;48.394;34.964;2023-03-03T10:38:19;99937.13;;;2.64;100.00
35045;BME280;21231;48.394;34.964;2023-03-03T10:41:12;99926.44;;;2.68;100.00
35045;BME280;21231;48.394;34.964;2023-03-03T10:57:56;99889.88;;;3.19;100.00
35045;BME280;21231;48.394;34.964;2023-03-03T11:00:40;99885.03;;;3.12;100.00
35045;BME280;21231;48.394;34.964;2023-03-03T11:12:35;99864.06;;;3.04;100.00
35045;BME280;21231;48.394;34.964;2023-03-03T11:17:53;99864.94;;;3.05;100.00
35045;BME280;21231;48.394;34.964;2023-03-03T11:20:45;99863.41;;;3.07;100.00
35045;BME280;21231;48.394;34.964;2023-03-03T11:23:29;99867.88;;;3.09;100.00
35045;BME280;21231;48.394;34.964;2023-03-03T11:28:55;99865.22;;;2.97;100.00
35045;BME280;21231;48.394;34.964;2023-03-03T11:31:36;99857.34;;;2.94;100.00
35045;BME280;21231;48.394;34.964;2023-03-03T11:34:16;99857.06;;;2.91;100.00
35045;BME280;21231;48.394;34.964;2023-03-03T11:37:13;99851.13;;;2.91;100.00
35045;BME280;21231;48.394;34.964;2023-03-03T11:39:44;99857.84;;;2.90;100.00
35045;BME280;21231;48.394;34.964;2023-03-03T11:45:53;99853.28;;;2.86;100.00
35045;BME280;21231;48.394;34.964;2023-03-03T11:48:42;99854.81;;;2.84;100.00
35045;BME280;21231;48.394;34.964;2023-03-03T11:54:04;99846.41;;;2.75;100.00
35045;BME280;21231;48.394;34.964;2023-03-03T11:56:41;99844.63;;;2.74;100.00
35045;BME280;21231;48.394;34.964;2023-03-03T11:59:23;99845.91;;;2.79;100.00
35045;BME280;21231;48.394;34.964;2023-03-03T12:04:38;99851.50;;;2.75;100.00
35045;BME280;21231;48.394;34.964;2023-03-03T12:07:33;99850.13;;;2.78;100.00
35045;BME280;21231;48.394;34.964;2023-03-03T12:12:51;99838.66;;;2.73;100.00
35045;BME280;21231;48.394;34.964;2023-03-03T12:18:29;99842.22;;;2.75;100.00
35045;BME280;21231;48.394;34.964;2023-03-03T12:21:40;99839.41;;;2.72;100.00
35045;BME280;21231;48.394;34.964;2023-03-03T12:30:04;99825.31;;;2.76;100.00
35045;BME280;21231;48.394;34.964;2023-03-03T12:32:56;99831.41;;;2.78;100.00
35045;BME280;21231;48.394;34.964;2023-03-03T12:35:35;99821.22;;;2.78;100.00
35045;BME280;21231;48.394;34.964;2023-03-03T12:41:10;99819.69;;;2.80;100.00
35045;BME280;21231;48.394;34.964;2023-03-03T12:49:11;99810.38;;;2.80;100.00
35045;BME280;21231;48.394;34.964;2023-03-03T12:54:52;99815.63;;;2.72;100.00
35045;BME280;21231;48.394;34.964;2023-03-03T13:00:27;99812.84;;;2.68;100.00
35045;BME280;21231;48.394;34.964;2023-03-03T13:03:12;99809.53;;;2.69;100.00
35045;BME280;21231;48.394;34.964;2023-03-03T13:08:32;99795.78;;;2.67;100.00
35045;BME280;21231;48.394;34.964;2023-03-03T13:14:18;99796.31;;;2.63;100.00
35045;BME280;21231;48.394;34.964;2023-03-03T13:20:00;99788.16;;;2.57;100.00
35045;BME280;21231;48.394;34.964;2023-03-03T13:22:50;99787.16;;;2.55;100.00
35045;BME280;21231;48.394;34.964;2023-03-03T13:25:39;99789.84;;;2.56;100.00
35045;BME280;21231;48.394;34.964;2023-03-03T13:34:43;99774.19;;;2.52;100.00
35045;BME280;21231;48.394;34.964;2023-03-03T13:37:23;99777.38;;;2.49;100.00
35045;BME280;21231;48.394;34.964;2023-03-03T13:39:56;99766.94;;;2.46;100.00
35045;BME280;21231;48.394;34.964;2023-03-03T13:42:39;99764.38;;;2.46;100.00
35045;BME280;21231;48.394;34.964;2023-03-03T13:48:16;99755.00;;;2.35;100.00
35045;BME280;21231;48.394;34.964;2023-03-03T13:50:56;99757.44;;;2.33;100.00
35045;BME280;21231;48.394;34.964;2023-03-03T13:56:23;99745.09;;;2.27;100.00
35045;BME280;21231;48.394;34.964;2023-03-03T14:07:51;99741.81;;;2.18;100.00
35045;BME280;21231;48.394;34.964;2023-03-03T14:13:20;99738.50;;;2.19;100.00
35045;BME280;21231;48.394;34.964;2023-03-03T14:16:04;99738.34;;;2.17;100.00
35045;BME280;21231;48.394;34.964;2023-03-03T14:18:40;99728.44;;;2.10;100.00
35045;BME280;21231;48.394;34.964;2023-03-03T14:21:21;99727.69;;;2.11;100.00
35045;BME280;21231;48.394;34.964;2023-03-03T14:24:10;99727.16;;;2.05;100.00
35045;BME280;21231;48.394;34.964;2023-03-03T14:26:51;99721.09;;;2.03;100.00
35045;BME280;21231;48.394;34.964;2023-03-03T14:31:58;99718.03;;;1.97;100.00
35045;BME280;21231;48.394;34.964;2023-03-03T14:34:39;99715.25;;;1.94;100.00
35045;BME280;21231;48.394;34.964;2023-03-03T14:37:21;99714.09;;;1.90;100.00
35045;BME280;21231;48.394;34.964;2023-03-03T14:40:06;99712.31;;;1.89;100.00
35045;BME280;21231;48.394;34.964;2023-03-03T14:45:35;99708.13;;;1.89;100.00
35045;BME280;21231;48.394;34.964;2023-03-03T14:48:14;99706.09;;;1.85;100.00
35045;BME280;21231;48.394;34.964;2023-03-03T14:50:49;99713.59;;;1.84;100.00
35045;BME280;21231;48.394;34.964;2023-03-03T14:55:49;99715.09;;;1.82;100.00
35045;BME280;21231;48.394;34.964;2023-03-03T14:58:25;99710.66;;;1.79;100.00
35045;BME280;21231;48.394;34.964;2023-03-03T15:04:03;99709.53;;;1.75;100.00
35045;BME280;21231;48.394;34.964;2023-03-03T15:06:44;99708.38;;;1.72;100.00
35045;BME280;21231;48.394;34.964;2023-03-03T15:09:38;99701.25;;;1.68;100.00
35045;BME280;21231;48.394;34.964;2023-03-03T15:14:51;99707.34;;;1.70;100.00
35045;BME280;21231;48.394;34.964;2023-03-03T15:17:34;99711.66;;;1.71;100.00
35045;BME280;21231;48.394;34.964;2023-03-03T15:29:03;99704.03;;;1.60;100.00
35045;BME280;21231;48.394;34.964;2023-03-03T15:31:40;99711.41;;;1.57;100.00
35045;BME280;21231;48.394;34.964;2023-03-03T15:42:20;99714.06;;;1.59;100.00
35045;BME280;21231;48.394;34.964;2023-03-03T15:44:58;99717.50;;;1.59;100.00
35045;BME280;21231;48.394;34.964;2023-03-03T15:50:20;99720.91;;;1.60;100.00
35045;BME280;21231;48.394;34.964;2023-03-03T15:53:11;99714.47;;;1.63;100.00
35045;BME280;21231;48.394;34.964;2023-03-03T15:55:51;99715.09;;;1.61;100.00
35045;BME280;21231;48.394;34.964;2023-03-03T16:01:25;99710.91;;;1.61;100.00
35045;BME280;21231;48.394;34.964;2023-03-03T16:04:10;99714.97;;;1.59;100.00
35045;BME280;21231;48.394;34.964;2023-03-03T16:09:39;99710.63;;;1.58;100.00
35045;BME280;21231;48.394;34.964;2023-03-03T16:12:29;99718.16;;;1.57;100.00
35045;BME280;21231;48.394;34.964;2023-03-03T16:23:49;99702.38;;;1.50;100.00
35045;BME280;21231;48.394;34.964;2023-03-03T16:29:34;99709.63;;;1.46;100.00
35045;BME280;21231;48.394;34.964;2023-03-03T16:34:55;99705.16;;;1.43;100.00
35045;BME280;21231;48.394;34.964;2023-03-03T16:37:57;99695.75;;;1.42;100.00
35045;BME280;21231;48.394;34.964;2023-03-03T16:40:46;99707.69;;;1.43;100.00
35045;BME280;21231;48.394;34.964;2023-03-03T16:45:47;99700.69;;;1.40;100.00
35045;BME280;21231;48.394;34.964;2023-03-03T16:48:28;99692.06;;;1.38;100.00
35045;BME280;21231;48.394;34.964;2023-03-03T16:54:00;99688.78;;;1.39;100.00
35045;BME280;21231;48.394;34.964;2023-03-03T16:56:48;99689.41;;;1.37;100.00
35045;BME280;21231;48.394;34.964;2023-03-03T17:05:41;99677.22;;;1.33;100.00
35045;BME280;21231;48.394;34.964;2023-03-03T17:22:18;99679.75;;;1.33;100.00
35045;BME280;21231;48.394;34.964;2023-03-03T17:25:04;99669.59;;;1.33;100.00
35045;BME280;21231;48.394;34.964;2023-03-03T17:27:59;99664.66;;;1.34;100.00
35045;BME280;21231;48.394;34.964;2023-03-03T17:35:57;99669.72;;;1.34;100.00
35045;BME280;21231;48.394;34.964;2023-03-03T17:38:39;99666.56;;;1.37;100.00
35045;BME280;21231;48.394;34.964;2023-03-03T17:41:20;99668.19;;;1.36;100.00
35045;BME280;21231;48.394;34.964;2023-03-03T17:44:12;99665.56;;;1.35;100.00
35045;BME280;21231;48.394;34.964;2023-03-03T17:46:53;99652.44;;;1.30;100.00
35045;BME280;21231;48.394;34.964;2023-03-03T17:55:17;99658.44;;;1.31;100.00